createdAt,value
2023-09-21T00:02:22.230Z,17.78
2023-09-21T00:05:07.631Z,17.99
2023-09-21T00:07:53.602Z,17.51
2023-09-21T00:10:38.830Z,17.21
2023-09-21T00:13:28.571Z,17.38
2023-09-21T00:16:16.271Z,17.14
2023-09-21T00:19:08.024Z,17.15
2023-09-21T00:21:55.219Z,17.12
2023-09-21T00:24:40.504Z,17.05
2023-09-21T00:27:29.728Z,17.25
2023-09-21T00:30:16.228Z,17.10
2023-09-21T00:33:01.667Z,17.21
2023-09-21T00:35:47.174Z,16.88
2023-09-21T00:38:32.705Z,17.12
2023-09-21T00:41:19.598Z,17.52
2023-09-21T00:44:08.995Z,17.10
2023-09-21T00:46:54.467Z,17.71
2023-09-21T00:49:39.691Z,17.06
2023-09-21T00:52:25.929Z,17.30
2023-09-21T00:55:14.323Z,17.34
2023-09-21T00:58:03.809Z,17.46
2023-09-21T01:00:50.373Z,17.88
2023-09-21T01:03:38.676Z,17.18
2023-09-21T01:06:24.755Z,16.99
2023-09-21T01:09:14.369Z,17.31
2023-09-21T01:12:00.949Z,17.17
2023-09-21T01:14:46.431Z,17.05
2023-09-21T01:17:32.256Z,16.91
2023-09-21T01:20:23.209Z,16.72
2023-09-21T01:23:19.798Z,16.85
2023-09-21T01:26:06.034Z,16.53
2023-09-21T01:28:51.472Z,16.48
2023-09-21T01:31:37.554Z,16.41
2023-09-21T01:34:22.956Z,16.37
2023-09-21T01:37:08.437Z,16.32
2023-09-21T01:39:53.673Z,16.39
2023-09-21T01:42:38.569Z,16.39
2023-09-21T01:45:23.623Z,16.36
2023-09-21T01:48:12.080Z,16.23
2023-09-21T01:51:00.522Z,16.31
2023-09-21T01:53:46.812Z,16.32
2023-09-21T01:56:32.376Z,16.55
2023-09-21T01:59:17.346Z,16.29
2023-09-21T02:02:02.777Z,16.26
2023-09-21T02:04:51.278Z,16.29
2023-09-21T02:07:36.907Z,16.49
2023-09-21T02:10:23.165Z,16.62
2023-09-21T02:13:08.944Z,16.43
2023-09-21T02:15:54.150Z,16.26
2023-09-21T02:18:39.273Z,16.01
2023-09-21T02:21:25.198Z,15.98
2023-09-21T02:24:10.597Z,16.26
2023-09-21T02:26:55.578Z,16.18
2023-09-21T02:29:41.944Z,16.11
2023-09-21T02:32:27.230Z,16.04
2023-09-21T02:35:16.983Z,15.98
2023-09-21T02:38:06.407Z,16.47
2023-09-21T02:40:51.791Z,16.06
2023-09-21T02:43:36.697Z,16.07
2023-09-21T02:46:23.120Z,16.42
2023-09-21T02:49:08.216Z,16.66
2023-09-21T02:51:53.988Z,16.96
2023-09-21T02:54:39.493Z,16.69
2023-09-21T02:57:25.060Z,16.20
2023-09-21T03:00:20.877Z,16.21
2023-09-21T03:03:07.896Z,16.01
2023-09-21T03:05:54.120Z,15.90
2023-09-21T03:08:39.859Z,15.73
2023-09-21T03:11:26.463Z,15.69
2023-09-21T03:14:11.371Z,15.60
2023-09-21T03:16:56.776Z,15.41
2023-09-21T03:19:41.897Z,15.49
2023-09-21T03:22:28.295Z,15.52
2023-09-21T03:25:17.530Z,15.84
2023-09-21T03:28:17.157Z,15.97
2023-09-21T03:31:02.386Z,15.77
2023-09-21T03:33:48.738Z,15.86
2023-09-21T03:36:39.106Z,15.76
2023-09-21T03:39:28.240Z,15.67
2023-09-21T03:42:13.592Z,15.68
2023-09-21T03:44:58.419Z,15.60
2023-09-21T03:47:44.323Z,15.54
2023-09-21T03:50:29.363Z,15.50
2023-09-21T03:53:14.382Z,15.40
2023-09-21T03:56:01.428Z,15.57
2023-09-21T03:58:46.596Z,15.29
2023-09-21T04:01:31.581Z,15.49
2023-09-21T04:04:19.416Z,15.42
2023-09-21T04:07:05.077Z,15.42
2023-09-21T04:09:50.506Z,15.61
2023-09-21T04:12:36.225Z,15.50
2023-09-21T04:15:30.155Z,15.47
2023-09-21T04:18:15.744Z,15.37
2023-09-21T04:23:50.005Z,15.94
2023-09-21T04:26:35.121Z,15.61
2023-09-21T04:29:20.095Z,15.36
2023-09-21T04:32:05.431Z,15.23
2023-09-21T04:34:50.883Z,15.23
2023-09-21T04:37:36.429Z,15.23
2023-09-21T04:40:23.082Z,15.14
2023-09-21T04:43:08.921Z,15.23
2023-09-21T04:45:53.861Z,15.39
2023-09-21T04:48:41.375Z,15.28
2023-09-21T04:51:26.612Z,15.42
2023-09-21T04:54:11.971Z,15.33
2023-09-21T04:56:57.259Z,15.25
2023-09-21T04:59:42.617Z,15.50
2023-09-21T05:02:27.960Z,15.45
2023-09-21T05:05:15.119Z,15.76
2023-09-21T05:07:59.883Z,15.75
2023-09-21T05:10:45.236Z,15.75
2023-09-21T05:13:30.986Z,15.81
2023-09-21T05:16:19.291Z,15.77
2023-09-21T05:19:06.619Z,16.14
2023-09-21T05:21:52.081Z,16.29
2023-09-21T05:24:38.077Z,15.97
2023-09-21T05:27:23.202Z,15.86
2023-09-21T05:30:10.864Z,15.74
2023-09-21T05:33:02.213Z,16.14
2023-09-21T05:35:52.500Z,15.84
2023-09-21T05:38:38.322Z,16.07
2023-09-21T05:41:23.828Z,15.81
2023-09-21T05:44:08.927Z,15.54
2023-09-21T05:46:54.002Z,15.51
2023-09-21T05:49:39.224Z,15.45
2023-09-21T05:52:25.295Z,15.96
2023-09-21T05:55:13.865Z,16.04
2023-09-21T05:57:59.252Z,15.91
2023-09-21T06:00:44.243Z,15.84
2023-09-21T06:03:30.169Z,15.95
2023-09-21T06:06:15.925Z,16.17
2023-09-21T06:09:02.860Z,16.24
2023-09-21T06:11:47.923Z,16.35
2023-09-21T06:14:33.082Z,16.48
2023-09-21T06:17:18.054Z,16.49
2023-09-21T06:20:04.482Z,16.45
2023-09-21T06:22:49.329Z,16.70
2023-09-21T06:25:36.320Z,16.65
2023-09-21T06:28:22.378Z,16.85
2023-09-21T06:31:08.272Z,16.70
2023-09-21T06:33:58.649Z,16.80
2023-09-21T06:36:43.747Z,16.86
2023-09-21T06:39:29.367Z,16.81
2023-09-21T06:42:16.536Z,16.99
2023-09-21T06:45:02.097Z,17.29
2023-09-21T06:47:48.900Z,17.31
2023-09-21T06:50:34.272Z,17.37
2023-09-21T06:53:19.246Z,17.55
2023-09-21T06:56:05.102Z,17.64
2023-09-21T06:58:50.534Z,17.75
2023-09-21T07:01:35.645Z,17.88
2023-09-21T07:04:22.259Z,18.07
2023-09-21T07:07:08.959Z,18.20
2023-09-21T07:09:55.790Z,18.37
2023-09-21T07:12:41.122Z,18.41
2023-09-21T07:15:25.955Z,18.61
2023-09-21T07:18:10.953Z,18.72
2023-09-21T07:20:56.598Z,18.84
2023-09-21T07:23:42.037Z,19.04
2023-09-21T07:26:27.324Z,19.18
2023-09-21T07:29:16.359Z,19.30
2023-09-21T07:32:01.630Z,19.39
2023-09-21T07:34:50.168Z,19.53
2023-09-21T07:37:35.243Z,19.73
2023-09-21T07:40:22.350Z,19.90
2023-09-21T07:43:08.150Z,20.05
2023-09-21T07:45:54.854Z,20.18
2023-09-21T07:48:40.951Z,20.41
2023-09-21T07:51:27.591Z,20.55
2023-09-21T07:54:13.101Z,20.80
2023-09-21T07:56:58.473Z,20.95
2023-09-21T07:59:44.416Z,21.12
2023-09-21T08:02:29.574Z,21.20
2023-09-21T08:05:15.501Z,21.37
2023-09-21T08:08:01.490Z,21.53
2023-09-21T08:10:46.569Z,21.72
2023-09-21T08:13:32.309Z,21.80
2023-09-21T08:16:17.784Z,21.86
2023-09-21T08:19:03.055Z,22.08
2023-09-21T08:21:48.113Z,22.19
2023-09-21T08:24:33.679Z,22.27
2023-09-21T08:27:19.239Z,22.40
2023-09-21T08:30:06.181Z,22.58
2023-09-21T08:32:51.483Z,22.83
2023-09-21T08:35:37.016Z,23.10
2023-09-21T08:38:22.018Z,23.20
2023-09-21T08:41:07.431Z,23.13
2023-09-21T08:43:55.572Z,22.78
2023-09-21T08:46:41.588Z,22.63
2023-09-21T08:49:29.472Z,22.50
2023-09-21T08:52:15.080Z,22.56
2023-09-21T08:55:00.364Z,22.93
2023-09-21T08:57:46.342Z,23.16
2023-09-21T09:00:32.196Z,23.60
2023-09-21T09:03:20.599Z,23.92
2023-09-21T09:06:05.725Z,24.12
2023-09-21T09:08:50.934Z,24.45
2023-09-21T09:11:41.121Z,24.76
2023-09-21T09:14:26.327Z,24.94
2023-09-21T09:17:15.362Z,25.01
2023-09-21T09:20:03.591Z,24.68
2023-09-21T09:22:50.516Z,24.36
2023-09-21T09:25:38.432Z,24.32
2023-09-21T09:28:23.653Z,24.11
2023-09-21T09:31:12.126Z,24.06
2023-09-21T09:33:58.553Z,24.28
2023-09-21T09:36:46.881Z,24.30
2023-09-21T09:39:31.968Z,24.20
2023-09-21T09:42:18.653Z,24.09
2023-09-21T09:45:05.402Z,24.02
2023-09-21T09:47:59.180Z,24.07
2023-09-21T09:50:50.232Z,24.12
2023-09-21T09:53:36.175Z,23.99
2023-09-21T09:56:23.722Z,23.90
2023-09-21T09:59:12.996Z,23.79
2023-09-21T10:02:00.089Z,23.73
2023-09-21T10:04:47.817Z,23.52
2023-09-21T10:07:33.003Z,23.41
2023-09-21T10:10:21.926Z,23.25
2023-09-21T10:13:07.260Z,23.12
2023-09-21T10:16:06.540Z,23.03
2023-09-21T10:18:59.955Z,23.01
2023-09-21T10:21:47.110Z,23.03
2023-09-21T10:24:33.195Z,23.01
2023-09-21T10:27:21.826Z,23.05
2023-09-21T10:30:16.756Z,22.94
2023-09-21T10:33:03.327Z,22.85
2023-09-21T10:35:50.662Z,22.90
2023-09-21T10:38:36.365Z,22.87
2023-09-21T10:41:34.141Z,22.82
2023-09-21T10:45:05.382Z,22.82
2023-09-21T10:47:53.946Z,22.80
2023-09-21T10:50:40.121Z,22.90
2023-09-21T10:53:25.919Z,22.99
2023-09-21T10:56:10.951Z,23.23
2023-09-21T10:58:56.529Z,23.34
2023-09-21T11:01:42.844Z,23.41
2023-09-21T11:04:28.271Z,23.59
2023-09-21T11:07:14.153Z,23.81
2023-09-21T11:09:59.750Z,24.53
2023-09-21T11:12:45.965Z,24.94
2023-09-21T11:15:33.456Z,24.92
2023-09-21T11:18:18.996Z,24.88
2023-09-21T11:21:05.085Z,24.78
2023-09-21T11:23:51.214Z,24.66
2023-09-21T11:26:36.979Z,24.56
2023-09-21T11:29:22.181Z,24.72
2023-09-21T11:32:08.636Z,24.81
2023-09-21T11:34:59.812Z,24.81
2023-09-21T11:37:47.459Z,24.67
2023-09-21T11:40:33.361Z,24.72
2023-09-21T11:43:18.655Z,24.76
2023-09-21T11:46:04.931Z,24.74
2023-09-21T11:48:51.327Z,24.71
2023-09-21T11:51:36.720Z,24.77
2023-09-21T11:54:22.006Z,24.85
2023-09-21T11:57:07.986Z,24.80
2023-09-21T11:59:57.800Z,24.75
2023-09-21T12:02:44.814Z,24.56
2023-09-21T12:05:33.402Z,24.45
2023-09-21T12:08:20.918Z,24.33
2023-09-21T12:11:09.184Z,24.34
2023-09-21T12:13:54.715Z,24.29
2023-09-21T12:16:41.196Z,24.21
2023-09-21T12:19:26.993Z,24.14
2023-09-21T12:22:13.139Z,24.10
2023-09-21T12:24:58.275Z,23.95
2023-09-21T12:27:48.048Z,23.74
2023-09-21T12:30:33.855Z,23.48
2023-09-21T12:33:39.019Z,23.44
2023-09-21T12:36:34.608Z,23.28
2023-09-21T12:39:28.936Z,23.11
2023-09-21T12:42:15.753Z,22.89
2023-09-21T12:45:01.240Z,22.71
2023-09-21T12:47:47.546Z,22.55
2023-09-21T12:50:33.078Z,22.39
2023-09-21T12:53:18.661Z,22.24
2023-09-21T12:56:05.959Z,22.00
2023-09-21T12:58:51.801Z,21.73
2023-09-21T13:01:38.165Z,21.57
2023-09-21T13:04:24.605Z,21.47
2023-09-21T13:07:09.640Z,21.38
2023-09-21T13:09:54.691Z,21.12
2023-09-21T13:12:40.800Z,21.10
2023-09-21T13:15:27.777Z,20.87
2023-09-21T13:18:15.550Z,20.97
2023-09-21T13:21:01.130Z,20.79
2023-09-21T13:23:46.377Z,20.67
2023-09-21T13:26:31.591Z,20.59
2023-09-21T13:29:19.690Z,20.48
2023-09-21T13:32:05.957Z,20.58
2023-09-21T13:34:51.869Z,20.65
2023-09-21T13:37:37.428Z,20.76
2023-09-21T13:40:23.231Z,20.88
2023-09-21T13:43:08.599Z,20.92
2023-09-21T13:45:53.567Z,20.98
2023-09-21T13:48:39.634Z,21.07
2023-09-21T13:51:25.311Z,21.14
2023-09-21T13:54:10.629Z,21.43
2023-09-21T13:56:56.088Z,21.65
2023-09-21T13:59:41.315Z,21.71
2023-09-21T14:02:27.224Z,21.90
2023-09-21T14:05:12.564Z,21.74
2023-09-21T14:07:58.796Z,21.67
2023-09-21T14:10:44.607Z,21.55
2023-09-21T14:13:29.698Z,21.52
2023-09-21T14:16:14.734Z,21.42
2023-09-21T14:19:00.460Z,21.29
2023-09-21T14:21:45.499Z,21.33
2023-09-21T14:24:31.372Z,21.27
2023-09-21T14:27:16.630Z,21.26
2023-09-21T14:30:03.166Z,21.21
2023-09-21T14:32:53.720Z,21.14
2023-09-21T14:35:38.689Z,21.05
2023-09-21T14:38:23.651Z,20.98
2023-09-21T14:41:08.708Z,20.91
2023-09-21T14:43:53.693Z,20.75
2023-09-21T14:46:38.655Z,20.68
2023-09-21T14:49:26.644Z,20.57
2023-09-21T14:52:13.773Z,20.47
2023-09-21T14:54:59.264Z,20.33
2023-09-21T14:57:45.079Z,20.27
2023-09-21T15:00:31.057Z,20.27
2023-09-21T15:03:16.992Z,20.23
2023-09-21T15:06:02.635Z,20.28
2023-09-21T15:08:48.136Z,20.21
2023-09-21T15:11:33.376Z,20.21
2023-09-21T15:14:19.307Z,20.18
2023-09-21T15:17:04.351Z,20.17
2023-09-21T15:19:50.343Z,20.20
2023-09-21T15:22:35.435Z,20.10
2023-09-21T15:25:21.233Z,20.12
2023-09-21T15:28:06.794Z,20.09
2023-09-21T15:30:52.411Z,20.05
2023-09-21T15:33:37.685Z,20.06
2023-09-21T15:36:23.019Z,20.10
2023-09-21T15:39:11.862Z,20.13
2023-09-21T15:41:56.741Z,20.09
2023-09-21T15:44:42.126Z,19.90
2023-09-21T15:47:27.847Z,20.03
2023-09-21T15:50:13.238Z,19.95
2023-09-21T15:52:58.843Z,19.91
2023-09-21T15:55:46.073Z,19.96
2023-09-21T15:58:32.818Z,19.99
2023-09-21T16:01:18.105Z,19.87
2023-09-21T16:04:06.678Z,19.99
2023-09-21T16:06:51.930Z,19.91
2023-09-21T16:09:36.883Z,19.96
2023-09-21T16:12:22.279Z,19.82
2023-09-21T16:15:07.938Z,19.80
2023-09-21T16:17:53.582Z,19.83
2023-09-21T16:20:39.031Z,19.79
2023-09-21T16:23:26.123Z,19.74
2023-09-21T16:26:11.024Z,19.79
2023-09-21T16:28:56.017Z,19.78
2023-09-21T16:31:41.476Z,19.80
2023-09-21T16:34:26.375Z,19.91
2023-09-21T16:37:11.783Z,19.93
2023-09-21T16:39:57.084Z,19.94
2023-09-21T16:42:42.151Z,19.94
2023-09-21T16:45:27.785Z,19.96
2023-09-21T16:48:12.909Z,20.00
2023-09-21T16:50:59.118Z,20.03
2023-09-21T16:53:44.553Z,20.05
2023-09-21T16:56:32.025Z,20.05
2023-09-21T16:59:19.038Z,20.07
2023-09-21T17:02:04.355Z,20.06
2023-09-21T17:04:49.654Z,20.02
2023-09-21T17:07:34.666Z,19.98
2023-09-21T17:10:21.279Z,19.93
2023-09-21T17:13:08.230Z,19.96
2023-09-21T17:15:53.968Z,19.92
2023-09-21T17:18:39.031Z,19.92
2023-09-21T17:21:24.126Z,19.92
2023-09-21T17:24:09.426Z,19.93
2023-09-21T17:26:54.661Z,19.82
2023-09-21T17:29:39.891Z,19.87
2023-09-21T17:32:25.732Z,19.79
2023-09-21T17:35:11.151Z,19.87
2023-09-21T17:37:56.510Z,19.90
2023-09-21T17:40:41.633Z,19.89
2023-09-21T17:43:27.372Z,19.95
2023-09-21T17:46:12.739Z,19.99
2023-09-21T17:48:58.109Z,19.96
2023-09-21T17:51:44.174Z,19.99
2023-09-21T17:54:29.360Z,19.99
2023-09-21T17:57:15.914Z,19.97
2023-09-21T18:00:01.310Z,19.95
2023-09-21T18:02:46.962Z,19.90
2023-09-21T18:05:34.692Z,19.92
2023-09-21T18:08:20.137Z,19.79
2023-09-21T18:11:05.555Z,19.79
2023-09-21T18:13:51.166Z,19.69
2023-09-21T18:16:36.176Z,19.64
2023-09-21T18:19:21.182Z,19.65
2023-09-21T18:22:07.063Z,19.62
2023-09-21T18:24:52.068Z,19.57
2023-09-21T18:27:37.521Z,19.53
2023-09-21T18:30:22.656Z,19.44
2023-09-21T18:33:08.098Z,19.42
2023-09-21T18:35:52.995Z,19.33
2023-09-21T18:38:38.365Z,19.49
2023-09-21T18:41:23.448Z,19.43
2023-09-21T18:44:08.940Z,19.51
2023-09-21T18:46:54.004Z,19.51
2023-09-21T18:49:39.376Z,19.58
2023-09-21T18:52:24.565Z,19.51
2023-09-21T18:55:09.948Z,19.60
2023-09-21T18:57:56.192Z,19.52
2023-09-21T19:00:41.486Z,19.45
2023-09-21T19:03:27.305Z,19.37
2023-09-21T19:06:13.705Z,19.57
2023-09-21T19:09:00.625Z,19.47
2023-09-21T19:11:46.914Z,19.53
2023-09-21T19:14:31.906Z,19.73
2023-09-21T19:17:17.274Z,19.72
2023-09-21T19:20:04.006Z,19.79
2023-09-21T19:22:50.288Z,19.83
2023-09-21T19:25:37.843Z,19.78
2023-09-21T19:28:25.714Z,19.85
2023-09-21T19:31:13.323Z,19.86
2023-09-21T19:33:58.500Z,19.68
2023-09-21T19:36:44.057Z,19.82
2023-09-21T19:39:29.974Z,19.65
2023-09-21T19:42:15.063Z,19.65
2023-09-21T19:45:00.362Z,19.67
2023-09-21T19:47:45.614Z,19.65
2023-09-21T19:50:31.126Z,19.50
2023-09-21T19:53:17.447Z,19.41
2023-09-21T19:56:02.685Z,19.47
2023-09-21T19:58:47.953Z,19.47
2023-09-21T20:01:33.273Z,19.49
2023-09-21T20:04:19.199Z,19.37
2023-09-21T20:07:04.894Z,19.35
2023-09-21T20:09:50.179Z,19.31
2023-09-21T20:12:35.635Z,19.35
2023-09-21T20:15:21.148Z,19.25
2023-09-21T20:18:07.276Z,19.32
2023-09-21T20:20:52.425Z,19.37
2023-09-21T20:23:37.477Z,19.47
2023-09-21T20:26:22.850Z,19.59
2023-09-21T20:29:08.025Z,19.58
2023-09-21T20:31:55.108Z,19.41
2023-09-21T20:34:40.805Z,19.44
2023-09-21T20:37:25.770Z,19.35
2023-09-21T20:40:12.706Z,19.21
2023-09-21T20:42:58.041Z,19.26
2023-09-21T20:45:45.410Z,19.36
2023-09-21T20:48:30.995Z,19.44
2023-09-21T20:51:16.766Z,19.40
2023-09-21T20:54:01.943Z,19.48
2023-09-21T20:56:47.118Z,19.53
2023-09-21T20:59:32.596Z,19.36
2023-09-21T21:02:18.015Z,19.31
2023-09-21T21:05:03.383Z,19.35
2023-09-21T21:07:48.747Z,19.23
2023-09-21T21:10:33.806Z,19.31
2023-09-21T21:13:19.112Z,19.36
2023-09-21T21:16:04.755Z,19.28
2023-09-21T21:18:49.997Z,19.22
2023-09-21T21:21:36.114Z,19.23
2023-09-21T21:24:21.065Z,19.18
2023-09-21T21:27:06.223Z,19.17
2023-09-21T21:29:51.372Z,19.19
2023-09-21T21:32:36.669Z,19.19
2023-09-21T21:35:22.038Z,19.13
2023-09-21T21:38:06.923Z,19.16
2023-09-21T21:40:52.248Z,19.21
2023-09-21T21:43:40.191Z,19.20
2023-09-21T21:46:25.631Z,19.05
2023-09-21T21:49:10.748Z,19.17
2023-09-21T21:51:56.939Z,19.15
2023-09-21T21:54:42.282Z,19.03
2023-09-21T21:57:27.542Z,19.04
2023-09-21T22:00:27.557Z,19.09
2023-09-21T22:03:13.132Z,18.99
2023-09-21T22:05:59.495Z,18.85
2023-09-21T22:08:45.243Z,18.73
2023-09-21T22:11:30.619Z,18.56
2023-09-21T22:14:15.687Z,18.52
2023-09-21T22:17:00.870Z,18.44
2023-09-21T22:19:46.255Z,18.27
2023-09-21T22:22:31.476Z,18.09
2023-09-21T22:25:20.489Z,18.26
2023-09-21T22:28:07.586Z,18.37
2023-09-21T22:30:53.637Z,18.39
2023-09-21T22:33:41.164Z,18.48
2023-09-21T22:36:29.212Z,18.47
2023-09-21T22:39:17.405Z,18.58
2023-09-21T22:42:02.618Z,18.43
2023-09-21T22:44:47.612Z,18.41
2023-09-21T22:47:34.376Z,18.16
2023-09-21T22:50:20.659Z,18.10
2023-09-21T22:53:05.841Z,18.20
2023-09-21T22:55:52.268Z,18.03
2023-09-21T22:58:38.346Z,17.98
2023-09-21T23:01:24.350Z,18.08
2023-09-21T23:04:09.756Z,18.17
2023-09-21T23:06:59.090Z,18.25
2023-09-21T23:09:44.553Z,18.36
2023-09-21T23:12:34.931Z,18.58
2023-09-21T23:15:20.016Z,18.55
2023-09-21T23:18:05.410Z,18.42
2023-09-21T23:20:50.366Z,18.54
2023-09-21T23:23:40.034Z,18.33
2023-09-21T23:26:28.733Z,18.09
2023-09-21T23:29:15.902Z,18.02
2023-09-21T23:32:01.488Z,17.86
2023-09-21T23:34:47.254Z,17.74
2023-09-21T23:37:33.282Z,17.84
2023-09-21T23:40:20.843Z,17.72
2023-09-21T23:43:06.337Z,17.77
2023-09-21T23:45:51.560Z,17.68
2023-09-21T23:48:38.400Z,17.70
2023-09-21T23:51:24.094Z,17.64
2023-09-21T23:54:09.545Z,17.72
2023-09-21T23:56:55.130Z,17.51
2023-09-21T23:59:40.331Z,17.70
